LEJR/XRY METAR and TAF weather

Enter ICAO airport designator
Station Type Date Time Source
LEJR METAR 2019/06/19 01:00 UTC NOAA

LEJR 190100Z AUTO 23006KT 9999 OVC009 19/17 Q1017


Station Type Date Time Source
LEJR Decoded METAR 2019/06/19 01:00 UTC NOAA

Jerez De La Fronteraaeropuerto, Spain (LEJR) 36-45N 006-04W 28M
Jun 18, 2019 - 09:00 PM EDT / 2019.06.19 0100 UTC
Wind: from the SW (230 degrees) at 7 MPH (6 KT):0
Visibility: greater than 7 mile(s):0
Sky conditions: overcast
Temperature: 66 F (19 C)
Dew Point: 62 F (17 C)
Relative Humidity: 88%
Pressure (altimeter): 30.03 in. Hg (1017 hPa)
ob: LEJR 190100Z AUTO 23006KT 9999 OVC009 19/17 Q1017
cycle: 1

Station Type Date Time Source
LEJR TAF 2019/06/18 18:27 UTC NOAA

TAF LEJR 181700Z 1818/1918 26010KT 9999 FEW025 TX28/1914Z TN14/1906Z
BECMG 1819/1822 20004KT PROB30
TEMPO 1900/1908 BKN012
BECMG 1910/1912 28012KT

Example: see airport list